createdAt,value
2019-03-20T00:00:20.443Z,1.49
2019-03-20T00:02:49.797Z,1.46
2019-03-20T00:05:18.532Z,1.46
2019-03-20T00:07:46.993Z,1.45
2019-03-20T00:10:15.561Z,1.39
2019-03-20T00:12:44.017Z,1.35
2019-03-20T00:15:14.801Z,1.32
2019-03-20T00:17:43.444Z,1.27
2019-03-20T00:20:13.441Z,1.26
2019-03-20T00:22:43.377Z,1.25
2019-03-20T00:25:12.413Z,1.23
2019-03-20T00:27:41.010Z,1.23
2019-03-20T00:30:14.455Z,1.22
2019-03-20T00:32:43.029Z,1.21
2019-03-20T00:35:12.035Z,1.19
2019-03-20T00:37:40.556Z,1.18
2019-03-20T00:40:16.348Z,1.13
2019-03-20T00:42:44.810Z,1.11
2019-03-20T00:45:15.480Z,1.10
2019-03-20T00:47:43.988Z,1.08
2019-03-20T00:50:16.637Z,1.07
2019-03-20T00:52:45.089Z,1.06
2019-03-20T00:55:14.972Z,1.04
2019-03-20T00:57:43.774Z,1.02
2019-03-20T01:00:19.881Z,0.98
2019-03-20T01:02:48.328Z,0.96
2019-03-20T01:05:16.949Z,0.92
2019-03-20T01:07:45.736Z,0.89
2019-03-20T01:10:16.368Z,0.87
2019-03-20T01:12:44.908Z,0.84
2019-03-20T01:15:13.579Z,0.81
2019-03-20T01:17:42.293Z,0.77
2019-03-20T01:20:21.775Z,0.73
2019-03-20T01:22:50.360Z,0.70
2019-03-20T01:25:19.106Z,0.66
2019-03-20T01:27:47.828Z,0.64
2019-03-20T01:30:32.372Z,0.61
2019-03-20T01:33:02.190Z,0.63
2019-03-20T01:35:31.612Z,0.63
2019-03-20T01:38:00.066Z,0.60
2019-03-20T01:40:28.637Z,0.57
2019-03-20T01:42:57.328Z,0.54
2019-03-20T01:45:25.954Z,0.50
2019-03-20T01:47:54.537Z,0.47
2019-03-20T01:50:23.076Z,0.41
2019-03-20T01:52:51.685Z,0.39
2019-03-20T01:55:20.198Z,0.38
2019-03-20T01:57:48.731Z,0.39
2019-03-20T02:00:17.281Z,0.38
2019-03-20T02:02:45.881Z,0.36
2019-03-20T02:05:14.951Z,0.32
2019-03-20T04:05:31.734Z,0.58
2019-03-20T04:08:00.263Z,0.57
2019-03-20T04:10:28.819Z,0.56
2019-03-20T04:12:57.308Z,0.59
2019-03-20T04:15:25.772Z,0.58
2019-03-20T04:17:54.316Z,0.58
2019-03-20T04:20:22.895Z,0.57
2019-03-20T04:22:51.346Z,0.58
2019-03-20T04:25:19.883Z,0.59
2019-03-20T04:27:48.404Z,0.58
2019-03-20T04:30:18.095Z,0.57
2019-03-20T04:32:46.788Z,0.59
2019-03-20T04:35:15.520Z,0.59
2019-03-20T04:37:43.985Z,0.60
2019-03-20T04:40:13.985Z,0.59
2019-03-20T04:42:42.552Z,0.59
2019-03-20T04:45:14.463Z,0.60
2019-03-20T04:47:42.894Z,0.59
2019-03-20T04:50:12.349Z,0.60
2019-03-20T04:52:40.812Z,0.60
2019-03-20T04:55:09.707Z,0.61
2019-03-20T04:57:38.189Z,0.61
2019-03-20T05:00:09.939Z,0.62
2019-03-20T05:02:38.483Z,0.63
2019-03-20T05:05:07.154Z,0.64
2019-03-20T05:07:36.018Z,0.65
2019-03-20T05:10:07.810Z,0.66
2019-03-20T05:12:36.314Z,0.67
2019-03-20T05:15:07.040Z,0.69
2019-03-20T05:17:35.555Z,0.70
2019-03-20T05:20:06.289Z,0.73
2019-03-20T05:22:34.760Z,0.77
2019-03-20T05:25:03.407Z,0.79
2019-03-20T05:27:31.913Z,0.81
2019-03-20T05:30:00.372Z,0.84
2019-03-20T05:32:28.918Z,0.87
2019-03-20T05:34:57.412Z,0.91
2019-03-20T05:37:25.874Z,0.93
2019-03-20T05:39:55.876Z,0.97
2019-03-20T05:42:24.394Z,1.01
2019-03-20T05:44:52.860Z,1.04
2019-03-20T05:47:21.408Z,1.10
2019-03-20T05:49:50.119Z,1.13
2019-03-20T05:52:18.558Z,1.18
2019-03-20T05:54:47.011Z,1.24
2019-03-20T05:57:15.547Z,1.31
2019-03-20T05:59:43.953Z,1.39
2019-03-20T06:02:12.413Z,1.47
2019-03-20T06:04:40.896Z,1.57
2019-03-20T06:07:09.361Z,1.67
2019-03-20T06:09:37.955Z,1.80
2019-03-20T06:12:06.457Z,1.91
2019-03-20T06:14:34.902Z,2.06
2019-03-20T06:17:03.369Z,2.21
2019-03-20T06:19:31.856Z,2.33
2019-03-20T06:22:00.311Z,2.48
2019-03-20T06:24:28.769Z,2.62
2019-03-20T06:26:57.273Z,2.77
2019-03-20T06:29:25.750Z,2.92
2019-03-20T06:31:54.197Z,3.07
2019-03-20T06:34:22.676Z,3.32
2019-03-20T06:36:51.139Z,3.32
2019-03-20T06:39:19.587Z,3.49
2019-03-20T06:41:48.090Z,3.49
2019-03-20T06:44:16.547Z,3.56
2019-03-20T06:46:44.998Z,3.60
2019-03-20T06:49:13.480Z,3.67
2019-03-20T06:51:41.956Z,3.76
2019-03-20T06:54:10.421Z,3.76
2019-03-20T06:56:38.905Z,3.94
2019-03-20T06:59:25.668Z,3.94
2019-03-20T07:01:54.222Z,4.05
2019-03-20T07:04:31.069Z,4.05
2019-03-20T07:07:05.448Z,4.11
2019-03-20T07:09:46.154Z,4.20
2019-03-20T07:12:15.104Z,4.24
2019-03-20T07:14:43.562Z,4.24
2019-03-20T07:17:12.033Z,4.32
2019-03-20T07:19:40.523Z,4.40
2019-03-20T07:22:08.969Z,4.47
2019-03-20T07:24:37.435Z,4.47
2019-03-20T07:27:05.991Z,4.61
2019-03-20T07:29:34.452Z,4.61
2019-03-20T07:32:02.897Z,4.78
2019-03-20T07:34:31.418Z,4.92
2019-03-20T07:36:59.877Z,5.08
2019-03-20T07:39:28.333Z,5.21
2019-03-20T07:41:56.846Z,5.37
2019-03-20T07:44:25.315Z,5.47
2019-03-20T07:46:53.831Z,5.59
2019-03-20T07:49:22.311Z,5.71
2019-03-20T07:51:50.786Z,5.80
2019-03-20T07:54:19.233Z,5.90
2019-03-20T07:56:47.721Z,5.98
2019-03-20T07:59:16.175Z,6.05
2019-03-20T08:01:44.626Z,6.11
2019-03-20T08:04:13.109Z,6.13
2019-03-20T08:06:41.562Z,6.18
2019-03-20T08:09:10.020Z,6.32
2019-03-20T08:11:38.520Z,6.47
2019-03-20T08:14:07.206Z,6.64
2019-03-20T08:16:35.668Z,6.77
2019-03-20T08:19:04.234Z,6.90
2019-03-20T08:21:32.693Z,7.02
2019-03-20T08:24:01.148Z,7.10
2019-03-20T08:26:29.726Z,7.22
2019-03-20T08:28:58.223Z,7.32
2019-03-20T08:31:26.689Z,7.41
2019-03-20T08:33:55.175Z,7.49
2019-03-20T08:36:23.633Z,7.56
2019-03-20T08:38:52.088Z,7.66
2019-03-20T08:41:20.569Z,7.74
2019-03-20T08:43:49.031Z,7.84
2019-03-20T08:46:17.495Z,7.97
2019-03-20T08:48:48.324Z,8.12
2019-03-20T08:51:16.191Z,8.30
2019-03-20T08:53:44.643Z,8.47
2019-03-20T08:56:13.164Z,8.64
2019-03-20T08:58:41.630Z,8.77
2019-03-20T09:01:10.092Z,8.92
2019-03-20T09:03:38.584Z,9.03
2019-03-20T09:06:07.049Z,9.14
2019-03-20T09:08:35.591Z,9.26
2019-03-20T09:11:04.062Z,9.35
2019-03-20T09:13:32.676Z,9.47
2019-03-20T09:16:01.535Z,9.61
2019-03-20T09:18:30.045Z,9.73
2019-03-20T09:20:58.532Z,9.86
2019-03-20T09:23:26.990Z,9.96
2019-03-20T09:25:55.494Z,10.05
2019-03-20T09:28:23.952Z,10.12
2019-03-20T09:30:52.435Z,10.22
2019-03-20T09:33:20.923Z,10.31
2019-03-20T09:35:51.135Z,10.41
2019-03-20T09:38:19.610Z,10.53
2019-03-20T09:40:48.130Z,10.62
2019-03-20T09:43:16.613Z,10.72
2019-03-20T09:45:45.116Z,10.79
2019-03-20T09:48:13.577Z,10.85
2019-03-20T09:50:42.031Z,10.90
2019-03-20T09:53:10.540Z,10.95
2019-03-20T09:55:39.014Z,10.99
2019-03-20T09:58:11.481Z,11.05
2019-03-20T10:00:37.691Z,11.15
2019-03-20T10:03:06.150Z,11.30
2019-03-20T10:05:34.635Z,11.44
2019-03-20T10:08:03.181Z,11.59
2019-03-20T10:10:32.091Z,11.73
2019-03-20T10:13:00.611Z,11.87
2019-03-20T10:15:30.260Z,12.02
2019-03-20T10:17:58.847Z,12.13
2019-03-20T10:20:27.389Z,12.26
2019-03-20T10:22:55.888Z,12.38
2019-03-20T10:25:24.410Z,12.52
2019-03-20T10:27:52.887Z,12.64
2019-03-20T10:30:25.013Z,12.74
2019-03-20T10:32:53.498Z,12.80
2019-03-20T10:35:22.046Z,12.85
2019-03-20T10:37:50.543Z,12.87
2019-03-20T10:40:26.129Z,12.87
2019-03-20T10:42:54.595Z,12.90
2019-03-20T10:45:23.118Z,12.90
2019-03-20T10:47:53.260Z,12.91
2019-03-20T10:50:23.285Z,12.94
2019-03-20T10:52:51.773Z,12.98
2019-03-20T10:55:20.238Z,13.03
2019-03-20T10:57:48.773Z,13.10
2019-03-20T11:00:24.586Z,13.19
2019-03-20T11:02:53.056Z,13.25
2019-03-20T11:05:21.664Z,13.28
2019-03-20T11:07:50.235Z,13.31
2019-03-20T11:10:26.745Z,13.33
2019-03-20T11:12:55.424Z,13.36
2019-03-20T11:15:24.738Z,13.37
2019-03-20T11:17:53.202Z,13.38
2019-03-20T11:20:22.803Z,13.39
2019-03-20T11:22:51.374Z,13.44
2019-03-20T11:25:24.855Z,13.50
2019-03-20T11:27:53.378Z,13.59
2019-03-20T11:30:32.010Z,13.62
2019-03-20T11:33:00.520Z,13.66
2019-03-20T11:35:28.985Z,13.67
2019-03-20T11:37:57.456Z,13.71
2019-03-20T11:40:39.953Z,13.72
2019-03-20T11:43:08.428Z,13.76
2019-03-20T11:45:36.898Z,13.79
2019-03-20T11:48:05.754Z,13.83
2019-03-20T11:50:41.712Z,13.87
2019-03-20T11:53:10.694Z,13.89
2019-03-20T11:55:39.222Z,13.94
2019-03-20T11:58:07.992Z,13.97
2019-03-20T12:00:36.532Z,14.01
2019-03-20T12:03:05.531Z,14.03
2019-03-20T12:05:34.004Z,14.02
2019-03-20T12:08:02.594Z,13.97
2019-03-20T12:10:32.324Z,13.92
2019-03-20T12:13:00.774Z,13.88
2019-03-20T12:15:29.298Z,13.83
2019-03-20T12:17:57.761Z,13.78
2019-03-20T12:20:26.796Z,13.72
2019-03-20T12:22:55.498Z,13.69
2019-03-20T12:25:28.601Z,13.63
2019-03-20T12:27:57.139Z,13.58
2019-03-20T12:30:38.981Z,13.50
2019-03-20T12:33:07.508Z,13.45
2019-03-20T12:35:40.559Z,13.42
2019-03-20T12:38:14.865Z,13.38
2019-03-20T12:40:39.255Z,13.35
2019-03-20T12:43:07.792Z,13.33
2019-03-20T12:45:39.928Z,13.31
2019-03-20T12:48:13.681Z,13.30
2019-03-20T12:50:42.147Z,13.28
2019-03-20T12:53:20.026Z,13.22
2019-03-20T12:55:48.487Z,13.14
2019-03-20T12:58:16.958Z,13.09
2019-03-20T13:05:41.436Z,13.03
2019-03-20T13:08:09.945Z,13.02
2019-03-20T13:10:38.446Z,13.03
2019-03-20T13:13:07.370Z,13.03
2019-03-20T13:15:35.972Z,13.04
2019-03-20T13:18:04.441Z,13.05
2019-03-20T13:20:34.497Z,13.05
2019-03-20T13:23:09.849Z,13.06
2019-03-20T13:25:38.607Z,13.08
2019-03-20T13:28:07.079Z,13.11
2019-03-20T13:30:57.125Z,13.13
2019-03-20T13:33:26.364Z,13.17
2019-03-20T13:35:54.956Z,13.17
2019-03-20T13:38:23.466Z,13.15
2019-03-20T13:40:52.618Z,13.13
2019-03-20T13:43:21.074Z,13.11
2019-03-20T13:45:49.560Z,13.06
2019-03-20T13:48:18.037Z,13.02
2019-03-20T13:50:46.494Z,12.99
2019-03-20T13:53:15.499Z,12.96
2019-03-20T13:55:44.152Z,12.95
2019-03-20T13:58:12.696Z,12.96
2019-03-20T14:00:41.251Z,12.98
2019-03-20T14:03:09.717Z,13.02
2019-03-20T14:05:38.196Z,13.03
2019-03-20T14:08:06.708Z,13.05
2019-03-20T14:10:49.523Z,13.08
2019-03-20T14:13:05.473Z,13.11
2019-03-20T14:15:33.964Z,13.14
2019-03-20T14:18:02.438Z,13.15
2019-03-20T14:20:32.445Z,13.16
2019-03-20T14:23:01.295Z,13.17
2019-03-20T14:25:29.800Z,13.14
2019-03-20T14:27:58.329Z,13.10
2019-03-20T14:30:30.657Z,13.07
2019-03-20T14:32:59.298Z,13.08
2019-03-20T14:35:28.129Z,13.11
2019-03-20T14:37:56.691Z,13.15
2019-03-20T14:40:35.458Z,13.20
2019-03-20T14:42:58.575Z,13.23
2019-03-20T14:45:27.195Z,13.21
2019-03-20T14:47:55.669Z,13.17
2019-03-20T14:50:25.947Z,13.13
2019-03-20T14:52:54.519Z,13.12
2019-03-20T14:55:22.983Z,13.09
2019-03-20T14:57:51.514Z,13.06
2019-03-20T15:00:30.102Z,13.04
2019-03-20T15:02:58.604Z,13.04
2019-03-20T15:05:27.055Z,13.01
2019-03-20T15:07:55.644Z,12.98
2019-03-20T15:10:26.111Z,12.96
2019-03-20T15:12:55.023Z,12.94
2019-03-20T15:15:29.633Z,12.92
2019-03-20T15:17:58.173Z,12.91
2019-03-20T15:20:26.627Z,12.88
2019-03-20T15:22:55.211Z,12.85
2019-03-20T15:25:23.900Z,12.84
2019-03-20T15:27:52.370Z,12.84
2019-03-20T15:30:25.267Z,12.83
2019-03-20T15:32:53.803Z,12.79
2019-03-20T15:35:22.425Z,12.76
2019-03-20T15:37:50.923Z,12.71
2019-03-20T15:40:20.840Z,12.66
2019-03-20T15:42:49.299Z,12.63
2019-03-20T15:45:18.752Z,12.59
2019-03-20T15:47:47.289Z,12.53
2019-03-20T15:50:17.609Z,12.48
2019-03-20T15:52:46.124Z,12.45
2019-03-20T15:55:20.248Z,12.42
2019-03-20T15:57:48.725Z,12.38
2019-03-20T16:00:19.167Z,12.35
2019-03-20T16:02:48.276Z,12.31
2019-03-20T16:05:16.739Z,12.28
2019-03-20T16:07:45.302Z,12.25
2019-03-20T16:10:23.459Z,12.24
2019-03-20T16:12:54.070Z,12.22
2019-03-20T16:15:23.274Z,12.21
2019-03-20T16:17:51.801Z,12.19
2019-03-20T16:20:20.392Z,12.17
2019-03-20T16:22:48.853Z,12.16
2019-03-20T16:25:19.639Z,12.14
2019-03-20T16:27:48.542Z,12.12
2019-03-20T16:30:22.557Z,12.13
2019-03-20T16:32:51.087Z,12.13
2019-03-20T16:35:19.580Z,12.12
2019-03-20T16:37:48.120Z,12.10
2019-03-20T16:40:21.455Z,12.07
2019-03-20T16:42:50.095Z,12.05
2019-03-20T16:45:21.362Z,12.03
2019-03-20T16:47:49.828Z,11.99
2019-03-20T16:50:18.800Z,11.97
2019-03-20T16:52:47.266Z,11.94
2019-03-20T16:55:16.476Z,11.92
2019-03-20T16:57:45.059Z,11.90
2019-03-20T17:00:30.529Z,11.88
2019-03-20T17:02:59.191Z,11.86
2019-03-20T17:05:28.266Z,11.83
2019-03-20T17:07:56.817Z,11.81
2019-03-20T17:10:42.363Z,11.79
2019-03-20T17:13:10.824Z,11.78
2019-03-20T17:15:40.730Z,11.76
2019-03-20T17:18:09.307Z,11.75
2019-03-20T17:20:37.903Z,11.74
2019-03-20T17:23:07.837Z,11.73
2019-03-20T17:25:36.682Z,11.72
2019-03-20T17:28:05.870Z,11.72
2019-03-20T17:30:46.606Z,11.71
2019-03-20T17:33:15.076Z,11.71
2019-03-20T17:35:43.546Z,11.70
2019-03-20T17:38:12.084Z,11.69
2019-03-20T17:40:40.524Z,11.70
2019-03-20T17:43:09.008Z,11.67
2019-03-20T17:45:38.821Z,11.65
2019-03-20T17:48:07.298Z,11.61
2019-03-20T17:50:35.931Z,11.58
2019-03-20T17:53:05.462Z,11.55
2019-03-20T17:55:33.925Z,11.52
2019-03-20T17:58:02.484Z,11.49
2019-03-20T18:00:39.486Z,11.48
2019-03-20T18:03:08.518Z,11.48
2019-03-20T18:05:37.062Z,11.45
2019-03-20T18:08:08.986Z,11.43
2019-03-20T18:10:37.534Z,11.42
2019-03-20T18:13:07.720Z,11.40
2019-03-20T18:15:36.437Z,11.39
2019-03-20T18:18:06.070Z,11.36
2019-03-20T18:20:34.540Z,11.33
2019-03-20T18:23:03.055Z,11.31
2019-03-20T18:25:31.526Z,11.29
2019-03-20T18:27:59.992Z,11.23
2019-03-20T18:30:36.095Z,11.19
2019-03-20T18:33:05.357Z,11.17
2019-03-20T18:35:33.817Z,11.14
2019-03-20T18:38:02.315Z,11.10
2019-03-20T18:40:30.843Z,11.08
2019-03-20T18:42:59.312Z,11.07
2019-03-20T18:45:27.988Z,11.06
2019-03-20T18:47:56.755Z,11.03
2019-03-20T18:50:25.590Z,11.01
2019-03-20T18:52:54.103Z,11.00
2019-03-20T18:55:22.561Z,10.99
2019-03-20T18:57:51.165Z,10.97
2019-03-20T19:00:22.467Z,10.95
2019-03-20T19:02:52.486Z,10.94
2019-03-20T19:05:42.132Z,10.93
2019-03-20T19:08:10.621Z,10.93
2019-03-20T19:10:39.172Z,10.92
2019-03-20T19:13:07.760Z,10.95
2019-03-20T19:15:36.289Z,10.95
2019-03-20T19:18:05.322Z,10.94
2019-03-20T19:20:33.930Z,10.92
2019-03-20T19:23:02.450Z,10.90
2019-03-20T19:25:30.946Z,10.89
2019-03-20T19:27:59.452Z,10.88
2019-03-20T19:30:29.604Z,10.87
2019-03-20T19:32:58.069Z,10.85
2019-03-20T19:35:26.852Z,10.85
2019-03-20T19:37:55.407Z,10.84
2019-03-20T19:40:23.960Z,10.84
2019-03-20T19:42:52.461Z,10.84
2019-03-20T19:45:20.928Z,10.86
2019-03-20T19:47:49.398Z,10.86
2019-03-20T19:50:22.350Z,10.86
2019-03-20T19:52:50.809Z,10.88
2019-03-20T19:55:19.459Z,10.87
2019-03-20T19:57:47.987Z,10.87
2019-03-20T20:00:24.610Z,10.87
2019-03-20T20:02:53.127Z,10.87
2019-03-20T20:05:21.611Z,10.87
2019-03-20T20:07:50.087Z,10.87
2019-03-20T20:10:20.288Z,10.85
2019-03-20T20:12:48.829Z,10.83
2019-03-20T20:15:27.873Z,10.81
2019-03-20T20:17:56.428Z,10.80
2019-03-20T20:20:32.682Z,10.77
2019-03-20T20:23:01.149Z,10.76
2019-03-20T20:25:29.604Z,10.74
2019-03-20T20:27:58.130Z,10.74
2019-03-20T20:30:26.596Z,10.77
2019-03-20T20:32:55.077Z,10.76
2019-03-20T20:35:23.587Z,10.77
2019-03-20T20:37:52.333Z,10.76
2019-03-20T20:40:28.410Z,10.77
2019-03-20T20:42:56.884Z,10.77
2019-03-20T20:45:25.370Z,10.78
2019-03-20T20:47:53.865Z,10.78
2019-03-20T20:50:22.394Z,10.79
2019-03-20T20:52:50.857Z,10.80
2019-03-20T20:55:23.133Z,10.78
2019-03-20T20:57:51.608Z,10.80
2019-03-20T21:00:25.129Z,10.83
2019-03-20T21:02:53.712Z,10.82
2019-03-20T21:05:22.250Z,10.83
2019-03-20T21:07:50.717Z,10.83
2019-03-20T21:10:24.443Z,10.81
2019-03-20T21:12:56.710Z,10.83
2019-03-20T21:15:32.671Z,10.82
2019-03-20T21:18:16.611Z,10.80
2019-03-20T21:20:46.310Z,10.80
2019-03-20T21:23:38.579Z,10.80
2019-03-20T21:26:12.268Z,10.82
2019-03-20T21:28:52.686Z,10.81
2019-03-20T21:31:24.496Z,10.80
2019-03-20T21:33:56.155Z,10.78
2019-03-20T21:36:44.556Z,10.77
2019-03-20T21:39:13.303Z,10.77
2019-03-20T21:42:06.306Z,10.77
2019-03-20T21:44:37.949Z,10.76
2019-03-20T21:47:21.892Z,10.77
2019-03-20T21:49:50.448Z,10.76
2019-03-20T21:52:18.919Z,10.76
2019-03-20T21:55:10.188Z,10.77
2019-03-20T21:57:44.656Z,10.77
2019-03-20T22:00:31.665Z,10.77
2019-03-20T22:03:00.128Z,10.79
2019-03-20T22:05:43.577Z,10.77
2019-03-20T22:08:12.048Z,10.78
2019-03-20T22:11:04.670Z,10.79
2019-03-20T22:13:45.383Z,10.80
2019-03-20T22:16:50.385Z,10.79
2019-03-20T22:19:41.402Z,10.78
2019-03-20T22:22:15.732Z,10.77
2019-03-20T22:25:02.417Z,10.76
2019-03-20T22:27:50.629Z,10.74
2019-03-20T22:30:19.096Z,10.74
2019-03-20T22:33:07.516Z,10.74
2019-03-20T22:35:47.664Z,10.73
2019-03-20T22:38:30.954Z,10.72
2019-03-20T22:41:03.374Z,10.71
2019-03-20T22:43:35.071Z,10.70
2019-03-20T22:46:38.208Z,10.69
2019-03-20T22:49:18.911Z,10.68
2019-03-20T22:51:50.564Z,10.68
2019-03-20T22:54:39.654Z,10.66
2019-03-20T22:57:13.964Z,10.66
2019-03-20T22:59:42.435Z,10.67
2019-03-20T23:02:14.127Z,10.67
2019-03-20T23:04:48.879Z,10.66
2019-03-20T23:07:17.349Z,10.65
2019-03-20T23:09:45.867Z,10.64
2019-03-20T23:12:14.749Z,10.64
2019-03-20T23:14:43.283Z,10.63
2019-03-20T23:17:11.778Z,10.63
2019-03-20T23:19:41.586Z,10.64
2019-03-20T23:22:10.320Z,10.63
2019-03-20T23:24:38.828Z,10.63
2019-03-20T23:27:13.582Z,10.63
2019-03-20T23:29:42.049Z,10.64
2019-03-20T23:32:10.817Z,10.63
2019-03-20T23:34:39.277Z,10.64
2019-03-20T23:37:07.741Z,10.65
2019-03-20T23:39:36.322Z,10.64
2019-03-20T23:42:05.460Z,10.64
2019-03-20T23:44:33.919Z,10.65
2019-03-20T23:47:02.432Z,10.64
2019-03-20T23:49:30.901Z,10.66
2019-03-20T23:51:59.379Z,10.67
2019-03-20T23:54:31.104Z,10.66
2019-03-20T23:56:59.569Z,10.66
2019-03-20T23:59:28.032Z,10.66
